Time;durP1;ratioP1;P1;durP2;ratioP2;P2;SDS_P1;SDS_P2;PMS_P1;PMS_P2;Temp;Humidity;BMP_temperature;BMP_pressure;BME280_temperature;BME280_humidity;BME280_pressure;Samples;Min_cycle;Max_cycle;Signal;HPM_P1;HPM_P2
2022/03/14 00:01:56;;;;;;;10.63;1.90;;;11.30;80.70;;;;;;5039399;28;20026;-42
2022/03/14 00:04:22;;;;;;;9.32;2.10;;;11.30;80.40;;;;;;5039625;28;20493;-41
2022/03/14 00:06:48;;;;;;;10.43;2.60;;;11.30;80.90;;;;;;5039304;28;20036;-42
2022/03/14 00:09:17;;;;;;;9.38;2.45;;;11.30;80.70;;;;;;5038921;28;20025;-42
2022/03/14 00:11:44;;;;;;;10.38;1.67;;;11.30;79.60;;;;;;5039014;28;20109;-41
2022/03/14 00:14:10;;;;;;;8.85;1.63;;;11.30;78.70;;;;;;5038524;28;20473;-41
2022/03/14 00:16:38;;;;;;;8.73;1.70;;;11.30;78.00;;;;;;5038662;28;20051;-41
2022/03/14 00:19:05;;;;;;;9.02;1.83;;;11.20;77.80;;;;;;5038549;28;20079;-41
2022/03/14 00:21:33;;;;;;;13.63;3.10;;;11.20;78.80;;;;;;5038708;28;20075;-41
2022/03/14 00:23:59;;;;;;;11.70;1.83;;;11.20;78.20;;;;;;5038099;28;20427;-42
2022/03/14 00:26:26;;;;;;;8.80;2.03;;;11.20;79.10;;;;;;5038638;28;20037;-41
2022/03/14 00:28:52;;;;;;;8.40;1.73;;;11.20;78.10;;;;;;5038427;28;20061;-42
2022/03/14 00:31:19;;;;;;;10.77;2.28;;;11.20;78.00;;;;;;5038809;28;20029;-41
2022/03/14 00:33:44;;;;;;;10.57;2.40;;;11.20;78.90;;;;;;5038525;28;20100;-42
2022/03/14 00:36:10;;;;;;;10.93;2.75;;;11.20;78.90;;;;;;5038475;28;20107;-42
2022/03/14 00:38:38;;;;;;;10.10;2.50;;;11.20;78.00;;;;;;5038317;28;20021;-43
2022/03/14 00:41:05;;;;;;;6.50;1.55;;;11.10;78.10;;;;;;5038234;28;20029;-41
2022/03/14 00:43:31;;;;;;;7.82;1.83;;;11.10;78.30;;;;;;5038210;28;20021;-42
2022/03/14 00:45:57;;;;;;;10.73;2.30;;;11.10;77.80;;;;;;5038166;28;20037;-41
2022/03/14 00:48:24;;;;;;;12.35;2.25;;;11.10;77.80;;;;;;5038041;28;20148;-42
2022/03/14 00:50:50;;;;;;;8.80;1.98;;;11.10;78.00;;;;;;5038247;28;20034;-42
2022/03/14 00:53:16;;;;;;;10.43;2.10;;;11.00;76.80;;;;;;5038027;28;20025;-41
2022/03/14 00:55:42;;;;;;;10.95;2.58;;;11.00;77.90;;;;;;5037965;28;20036;-41
2022/03/14 00:58:08;;;;;;;12.38;2.53;;;11.10;78.20;;;;;;5037299;28;20534;-43
2022/03/14 01:00:34;;;;;;;12.57;3.22;;;11.10;77.80;;;;;;5038050;28;20021;-42
2022/03/14 01:03:00;;;;;;;13.75;2.28;;;11.10;78.00;;;;;;5037918;28;20021;-41
2022/03/14 01:05:27;;;;;;;9.63;1.70;;;11.10;78.10;;;;;;5037815;28;20032;-42
2022/03/14 01:07:52;;;;;;;8.82;2.38;;;11.10;79.20;;;;;;5037828;28;20405;-41
2022/03/14 01:10:19;;;;;;;12.45;2.35;;;11.10;78.60;;;;;;5037728;28;20108;-43
2022/03/14 01:12:44;;;;;;;19.90;2.85;;;11.10;78.70;;;;;;5037694;28;20032;-41
2022/03/14 01:15:10;;;;;;;10.05;3.17;;;11.10;79.30;;;;;;5037864;28;20022;-41
2022/03/14 01:17:36;;;;;;;10.25;2.20;;;11.10;78.90;;;;;;5037607;28;20028;-42
2022/03/14 01:20:06;;;;;;;11.52;2.33;;;11.10;78.00;;;;;;5037575;28;20093;-42
2022/03/14 01:22:32;;;;;;;9.75;1.98;;;11.10;78.60;;;;;;5037750;28;20109;-42
2022/03/14 01:24:58;;;;;;;10.75;2.05;;;11.10;78.60;;;;;;5037214;28;20064;-41
2022/03/14 01:27:24;;;;;;;10.63;2.38;;;11.10;78.50;;;;;;5037226;28;20028;-42
2022/03/14 01:29:50;;;;;;;11.60;2.22;;;11.10;78.50;;;;;;5036995;28;20037;-43
2022/03/14 01:32:16;;;;;;;11.13;2.60;;;11.10;78.70;;;;;;5037605;28;20018;-41
2022/03/14 01:34:42;;;;;;;11.40;2.30;;;11.10;79.20;;;;;;5037375;28;20048;-42
2022/03/14 01:37:08;;;;;;;13.13;2.40;;;11.10;78.10;;;;;;5037345;28;20020;-41
2022/03/14 01:39:34;;;;;;;11.25;2.20;;;11.10;78.70;;;;;;5037580;28;20060;-41
2022/03/14 01:42:00;;;;;;;9.27;1.73;;;11.10;78.50;;;;;;5037588;28;20026;-42
2022/03/14 01:44:26;;;;;;;8.45;2.03;;;11.10;79.30;;;;;;5037462;28;20040;-42
2022/03/14 01:46:53;;;;;;;6.93;2.00;;;11.10;78.90;;;;;;5037289;28;20033;-41
2022/03/14 01:49:19;;;;;;;12.95;2.85;;;11.10;78.90;;;;;;5037117;28;20504;-42
2022/03/14 01:51:45;;;;;;;11.48;2.58;;;11.10;78.50;;;;;;5037142;28;20033;-43
2022/03/14 01:54:11;;;;;;;11.27;2.67;;;11.10;79.50;;;;;;5037307;28;20076;-42
2022/03/14 01:56:39;;;;;;;13.07;2.13;;;11.10;79.20;;;;;;5037209;28;20032;-42
2022/03/14 01:59:06;;;;;;;11.15;2.20;;;11.10;79.30;;;;;;5037341;28;20040;-41
2022/03/14 02:01:32;;;;;;;6.20;1.60;;;11.10;80.00;;;;;;5037404;28;20026;-42
2022/03/14 02:04:00;;;;;;;7.18;1.55;;;11.10;78.80;;;;;;5037362;28;20036;-43
2022/03/14 02:06:28;;;;;;;5.30;1.30;;;11.10;79.70;;;;;;5037176;28;20032;-41
2022/03/14 02:08:55;;;;;;;8.50;1.83;;;11.10;79.50;;;;;;5038043;28;20036;-41
2022/03/14 02:11:21;;;;;;;6.88;1.85;;;11.10;79.80;;;;;;5041105;28;20823;-41
2022/03/14 02:13:47;;;;;;;6.40;1.60;;;11.10;79.40;;;;;;5040910;28;20037;-41
2022/03/14 02:16:13;;;;;;;10.70;2.33;;;11.10;79.40;;;;;;5040982;28;20052;-41
2022/03/14 02:18:39;;;;;;;11.55;2.10;;;11.10;79.80;;;;;;5040882;28;20524;-42
2022/03/14 02:21:06;;;;;;;8.63;2.10;;;11.10;80.10;;;;;;5040591;28;20075;-41
2022/03/14 02:23:32;;;;;;;10.02;2.35;;;11.10;79.90;;;;;;5040576;28;20076;-42
2022/03/14 02:25:58;;;;;;;7.25;2.08;;;11.10;80.10;;;;;;5040765;28;20037;-41
2022/03/14 02:28:24;;;;;;;9.07;1.67;;;11.10;80.40;;;;;;5040785;28;20078;-41
2022/03/14 02:30:51;;;;;;;11.63;2.20;;;11.10;80.30;;;;;;5040847;28;20049;-41
2022/03/14 02:33:17;;;;;;;8.30;2.40;;;11.20;80.50;;;;;;5040613;28;20018;-42
2022/03/14 02:35:43;;;;;;;12.80;2.40;;;11.20;80.10;;;;;;5040830;28;20120;-43
2022/03/14 02:38:14;;;;;;;14.25;2.78;;;11.20;80.40;;;;;;5040752;28;20021;-41
2022/03/14 02:40:42;;;;;;;8.82;2.35;;;11.20;79.90;;;;;;5040550;28;20028;-41
2022/03/14 02:43:08;;;;;;;17.58;2.60;;;11.20;80.80;;;;;;5040427;28;20434;-43
2022/03/14 02:45:34;;;;;;;13.32;2.75;;;11.20;80.00;;;;;;5040183;28;20056;-41
2022/03/14 02:48:00;;;;;;;12.27;3.00;;;11.20;80.40;;;;;;5040300;28;20029;-43
2022/03/14 02:50:28;;;;;;;13.02;2.25;;;11.20;79.90;;;;;;5040233;28;20032;-43
2022/03/14 02:52:54;;;;;;;12.27;2.60;;;11.20;80.60;;;;;;5040361;28;20044;-42
2022/03/14 02:55:23;;;;;;;16.80;3.22;;;11.20;80.50;;;;;;5040282;28;20497;-42
2022/03/14 02:57:48;;;;;;;11.02;2.22;;;11.20;80.90;;;;;;5040364;28;20041;-42
2022/03/14 03:00:14;;;;;;;12.02;2.75;;;11.20;80.20;;;;;;5040272;28;20029;-42
2022/03/14 03:02:42;;;;;;;12.38;2.22;;;11.20;80.50;;;;;;5040059;28;20112;-42
2022/03/14 03:05:08;;;;;;;12.68;2.67;;;11.20;80.50;;;;;;5040127;28;20045;-42
2022/03/14 03:07:36;;;;;;;18.00;3.03;;;11.20;80.30;;;;;;5040469;28;20377;-42
2022/03/14 03:10:04;;;;;;;12.70;2.50;;;11.20;80.30;;;;;;5040340;28;20077;-42
2022/03/14 03:12:32;;;;;;;11.32;2.22;;;11.20;79.60;;;;;;5040068;28;21288;-41
2022/03/14 03:14:58;;;;;;;9.48;1.83;;;11.20;79.90;;;;;;5039957;28;20025;-41
2022/03/14 03:17:25;;;;;;;9.75;2.22;;;11.20;79.70;;;;;;5040016;28;20022;-41
2022/03/14 03:19:51;;;;;;;14.10;2.33;;;11.20;79.60;;;;;;5039111;28;20086;-44
2022/03/14 03:22:17;;;;;;;11.80;2.35;;;11.20;80.20;;;;;;5039546;28;20045;-41
2022/03/14 03:24:43;;;;;;;11.18;2.25;;;11.20;79.70;;;;;;5039540;28;20049;-41
2022/03/14 03:27:09;;;;;;;11.93;2.90;;;11.20;80.50;;;;;;5039457;28;20030;-41
2022/03/14 03:29:35;;;;;;;17.08;3.03;;;11.20;79.60;;;;;;5039437;28;20397;-41
2022/03/14 03:32:01;;;;;;;13.07;2.80;;;11.20;79.90;;;;;;5039725;28;20022;-42
2022/03/14 03:34:27;;;;;;;13.35;4.18;;;11.20;79.60;;;;;;5039696;28;20083;-41
2022/03/14 03:36:52;;;;;;;13.18;2.72;;;11.20;79.50;;;;;;5039533;28;20028;-42
2022/03/14 03:39:19;;;;;;;15.63;2.08;;;11.20;79.30;;;;;;5039622;28;20029;-44
2022/03/14 03:41:45;;;;;;;6.78;1.98;;;11.20;78.80;;;;;;5039541;28;20025;-41
2022/03/14 03:44:10;;;;;;;9.88;2.00;;;11.20;79.10;;;;;;5039364;28;20055;-42
2022/03/14 03:46:37;;;;;;;9.60;1.90;;;11.10;78.70;;;;;;5039304;28;20029;-41
2022/03/14 03:49:03;;;;;;;6.82;1.60;;;11.10;78.50;;;;;;5038953;28;20052;-42
2022/03/14 03:51:29;;;;;;;9.05;2.13;;;11.10;78.70;;;;;;5039184;28;20385;-41
2022/03/14 03:53:55;;;;;;;5.43;1.33;;;11.00;78.90;;;;;;5039394;28;20032;-41
2022/03/14 03:56:21;;;;;;;6.85;1.90;;;11.00;79.10;;;;;;5039300;28;20049;-42
2022/03/14 03:58:47;;;;;;;9.60;2.20;;;11.00;79.30;;;;;;5039509;28;20029;-41
2022/03/14 04:01:21;;;;;;;7.00;1.60;;;11.00;79.10;;;;;;5039155;28;20079;-42
2022/03/14 04:03:49;;;;;;;12.00;2.10;;;11.00;79.10;;;;;;5037549;28;20025;-42
2022/03/14 04:06:18;;;;;;;5.80;2.05;;;11.00;79.20;;;;;;5039064;28;20155;-42
2022/03/14 04:08:45;;;;;;;11.77;2.00;;;11.00;79.30;;;;;;5038939;28;20105;-43
2022/03/14 04:11:11;;;;;;;6.57;2.30;;;11.00;79.50;;;;;;5038968;28;20026;-41
2022/03/14 04:13:37;;;;;;;9.30;2.00;;;11.00;79.90;;;;;;5038850;28;20026;-41
2022/03/14 04:16:03;;;;;;;8.63;2.17;;;11.00;79.80;;;;;;5038759;28;20026;-42
2022/03/14 04:18:29;;;;;;;8.15;2.30;;;11.00;80.30;;;;;;5038801;28;20048;-42
2022/03/14 04:20:55;;;;;;;9.95;2.28;;;11.00;80.90;;;;;;5038511;28;20017;-41
2022/03/14 04:23:21;;;;;;;10.85;2.38;;;10.90;81.30;;;;;;5038725;28;20051;-41
2022/03/14 04:25:47;;;;;;;7.18;2.10;;;10.90;81.50;;;;;;5039080;28;20413;-41
2022/03/14 04:28:15;;;;;;;11.95;3.42;;;10.90;82.20;;;;;;5038525;28;20025;-41
2022/03/14 04:30:41;;;;;;;10.63;2.25;;;10.90;82.30;;;;;;5038442;28;20044;-41
2022/03/14 04:33:08;;;;;;;13.90;2.72;;;10.90;82.50;;;;;;5037679;28;20075;-41
2022/03/14 04:35:35;;;;;;;10.88;2.25;;;10.90;83.00;;;;;;5038221;28;20036;-41
2022/03/14 04:38:02;;;;;;;8.57;2.25;;;10.90;83.20;;;;;;5038246;28;20454;-41
2022/03/14 04:40:29;;;;;;;9.25;2.00;;;10.90;83.60;;;;;;5038480;28;20060;-42
2022/03/14 04:42:54;;;;;;;8.65;1.85;;;11.00;83.60;;;;;;5038200;28;20057;-41
2022/03/14 04:45:20;;;;;;;9.32;2.25;;;11.00;83.90;;;;;;5038238;28;20026;-43
2022/03/14 04:47:46;;;;;;;10.60;2.70;;;10.90;83.60;;;;;;5038056;28;20029;-42
2022/03/14 04:50:12;;;;;;;15.70;3.28;;;11.00;83.70;;;;;;5038181;28;20064;-41
2022/03/14 04:52:38;;;;;;;12.43;3.10;;;11.00;84.50;;;;;;5038137;28;20106;-42
2022/03/14 04:55:04;;;;;;;14.55;2.67;;;11.00;83.70;;;;;;5038175;28;20059;-42
2022/03/14 04:57:30;;;;;;;10.68;2.83;;;11.00;84.10;;;;;;5038094;28;20021;-43
2022/03/14 04:59:56;;;;;;;9.55;2.53;;;11.00;84.00;;;;;;5037883;28;20017;-41
2022/03/14 05:02:23;;;;;;;16.02;3.08;;;11.00;84.70;;;;;;5036414;28;20033;-41
2022/03/14 05:04:52;;;;;;;14.85;3.00;;;11.00;84.70;;;;;;5037813;28;20032;-41
2022/03/14 05:07:18;;;;;;;18.98;3.80;;;11.00;84.70;;;;;;5037631;28;20029;-43
2022/03/14 05:09:44;;;;;;;13.80;3.42;;;11.00;84.60;;;;;;5037660;28;20398;-41
2022/03/14 05:12:11;;;;;;;14.68;3.75;;;11.00;84.50;;;;;;5037894;28;20025;-42
2022/03/14 05:14:40;;;;;;;17.02;3.55;;;11.00;84.90;;;;;;5037937;28;20029;-41
2022/03/14 05:17:07;;;;;;;14.90;3.65;;;11.00;84.90;;;;;;5037730;28;20075;-41
2022/03/14 05:19:33;;;;;;;15.35;3.90;;;11.00;84.70;;;;;;5037429;28;20029;-42
2022/03/14 05:21:59;;;;;;;16.30;3.08;;;11.00;85.10;;;;;;5037801;28;20418;-41
2022/03/14 05:24:25;;;;;;;15.45;2.97;;;11.00;84.70;;;;;;5037478;28;20484;-41
2022/03/14 05:26:53;;;;;;;11.07;3.05;;;11.00;85.00;;;;;;5037739;28;20484;-42
2022/03/14 05:29:20;;;;;;;18.00;4.32;;;11.00;84.40;;;;;;5037318;28;20069;-42
2022/03/14 05:31:47;;;;;;;18.85;3.88;;;11.00;84.90;;;;;;5037240;28;20397;-41
2022/03/14 05:34:12;;;;;;;13.10;3.28;;;10.90;84.60;;;;;;5037655;28;20020;-42
2022/03/14 05:36:39;;;;;;;14.93;3.17;;;10.90;84.30;;;;;;5037687;28;20026;-42
2022/03/14 05:39:05;;;;;;;16.33;3.45;;;10.90;84.40;;;;;;5037260;28;20072;-41
2022/03/14 05:41:31;;;;;;;11.82;3.15;;;10.90;84.60;;;;;;5037615;28;20026;-41
2022/03/14 05:43:56;;;;;;;20.50;4.50;;;10.90;84.70;;;;;;5037102;28;20560;-41
2022/03/14 05:46:22;;;;;;;15.18;3.38;;;10.90;84.70;;;;;;5037396;28;20034;-42
2022/03/14 05:48:48;;;;;;;9.32;2.92;;;10.90;84.70;;;;;;5037202;28;20022;-41
2022/03/14 05:51:14;;;;;;;13.65;2.78;;;10.90;83.70;;;;;;5037468;28;20374;-41
2022/03/14 05:53:40;;;;;;;9.45;2.33;;;10.90;83.40;;;;;;5037509;28;20076;-41
2022/03/14 05:56:06;;;;;;;8.85;2.55;;;10.80;84.30;;;;;;5037407;28;20446;-41
2022/03/14 05:58:32;;;;;;;8.13;2.25;;;10.80;84.20;;;;;;5037141;28;20040;-42
2022/03/14 06:00:57;;;;;;;9.10;2.40;;;10.80;84.10;;;;;;5036986;28;20060;-41
2022/03/14 06:03:23;;;;;;;6.78;1.88;;;10.80;83.20;;;;;;5037182;28;20113;-43
2022/03/14 06:05:49;;;;;;;7.97;2.53;;;10.80;84.10;;;;;;5036934;28;20029;-42
2022/03/14 06:08:16;;;;;;;7.40;2.25;;;10.80;84.10;;;;;;5037357;28;20024;-41
2022/03/14 06:10:46;;;;;;;12.05;4.15;;;10.80;83.80;;;;;;5037076;28;20049;-44
2022/03/14 06:13:13;;;;;;;8.98;3.70;;;10.80;83.50;;;;;;5037020;28;20073;-42
2022/03/14 06:15:39;;;;;;;12.55;3.72;;;10.70;82.80;;;;;;5036938;28;20025;-42
2022/03/14 06:18:05;;;;;;;9.85;3.08;;;10.70;84.20;;;;;;5037048;28;20029;-41
2022/03/14 06:20:31;;;;;;;7.63;2.85;;;10.70;83.00;;;;;;5037202;28;20022;-42
2022/03/14 06:22:57;;;;;;;13.80;3.00;;;10.70;83.40;;;;;;5036969;28;20044;-41
2022/03/14 06:25:23;;;;;;;10.05;2.53;;;10.70;84.10;;;;;;5036948;28;20025;-42
2022/03/14 06:27:49;;;;;;;8.45;2.30;;;10.70;84.00;;;;;;5036954;28;20388;-41
2022/03/14 06:30:15;;;;;;;4.90;1.95;;;10.70;83.70;;;;;;5036777;28;20672;-41
2022/03/14 06:32:42;;;;;;;8.27;1.88;;;10.60;83.40;;;;;;5036970;28;20036;-42
2022/03/14 06:35:12;;;;;;;8.02;2.13;;;10.60;82.80;;;;;;5037055;28;20067;-42
2022/03/14 06:37:39;;;;;;;8.60;2.10;;;10.60;83.20;;;;;;5037030;28;20045;-42
2022/03/14 06:40:05;;;;;;;8.85;2.35;;;10.60;83.60;;;;;;5037052;28;20029;-41
2022/03/14 06:42:31;;;;;;;10.02;2.50;;;10.60;83.70;;;;;;5037258;28;20029;-42
2022/03/14 06:45:02;;;;;;;9.73;3.25;;;10.60;83.20;;;;;;5036809;28;20021;-42
2022/03/14 06:47:28;;;;;;;7.35;2.33;;;10.50;83.10;;;;;;5036858;28;20038;-41
2022/03/14 06:49:55;;;;;;;10.27;2.50;;;10.60;82.50;;;;;;5036594;28;20477;-41
2022/03/14 06:52:21;;;;;;;11.98;3.35;;;10.50;83.40;;;;;;5036991;28;20018;-41
2022/03/14 06:54:46;;;;;;;10.40;2.78;;;10.50;83.30;;;;;;5036965;28;20068;-42
2022/03/14 06:57:12;;;;;;;10.13;3.40;;;10.50;83.40;;;;;;5040431;28;20026;-41
2022/03/14 06:59:38;;;;;;;8.80;3.50;;;10.50;83.40;;;;;;5040383;28;20487;-41
2022/03/14 07:02:05;;;;;;;12.98;3.03;;;10.50;83.60;;;;;;5040190;28;20025;-48
2022/03/14 07:04:31;;;;;;;10.38;2.95;;;10.50;84.10;;;;;;5040072;28;20048;-41
2022/03/14 07:06:59;;;;;;;13.52;2.90;;;10.50;83.80;;;;;;5040258;28;20489;-42
2022/03/14 07:09:25;;;;;;;10.95;2.53;;;10.50;84.40;;;;;;5039272;28;20036;-45
2022/03/14 07:11:51;;;;;;;10.98;3.72;;;10.50;84.50;;;;;;5039893;28;20029;-42
2022/03/14 07:14:21;;;;;;;9.63;2.47;;;10.50;84.90;;;;;;5040055;28;20032;-44
2022/03/14 07:16:50;;;;;;;14.27;3.40;;;10.50;84.80;;;;;;5040096;28;20030;-43
2022/03/14 07:19:16;;;;;;;11.10;3.03;;;10.50;84.60;;;;;;5039761;28;20021;-44
2022/03/14 07:21:42;;;;;;;12.90;4.05;;;10.50;84.60;;;;;;5039475;28;20061;-46
2022/03/14 07:24:08;;;;;;;12.48;3.08;;;10.60;85.00;;;;;;5038643;28;20120;-46
2022/03/14 07:26:34;;;;;;;13.70;3.40;;;10.60;85.00;;;;;;5039291;28;20057;-42
2022/03/14 07:29:01;;;;;;;14.45;3.85;;;10.60;85.30;;;;;;5039576;28;20071;-47
2022/03/14 07:31:27;;;;;;;12.18;3.72;;;10.60;85.00;;;;;;5039436;28;20143;-42
2022/03/14 07:33:53;;;;;;;13.52;3.70;;;10.60;85.10;;;;;;5039492;28;20025;-43
2022/03/14 07:36:19;;;;;;;11.55;3.47;;;10.60;85.40;;;;;;5039613;28;20028;-45
2022/03/14 07:38:45;;;;;;;15.88;3.90;;;10.60;85.10;;;;;;5039673;28;20107;-46
2022/03/14 07:41:11;;;;;;;14.98;3.58;;;10.70;84.40;;;;;;5039321;28;20073;-44
2022/03/14 07:43:38;;;;;;;19.40;3.97;;;10.70;85.50;;;;;;5039209;28;20029;-42
2022/03/14 07:46:05;;;;;;;16.25;4.07;;;10.70;85.20;;;;;;5039235;28;20037;-46
2022/03/14 07:48:31;;;;;;;13.90;3.38;;;10.70;85.20;;;;;;5039218;28;20022;-47
2022/03/14 07:50:56;;;;;;;16.02;4.55;;;10.80;84.50;;;;;;5039078;28;20029;-45
2022/03/14 07:53:22;;;;;;;15.85;5.03;;;10.80;85.20;;;;;;5038986;28;20018;-47
2022/03/14 07:55:48;;;;;;;22.52;4.60;;;10.80;85.10;;;;;;5039301;28;20026;-47
2022/03/14 07:58:14;;;;;;;14.27;4.43;;;10.80;85.50;;;;;;5039287;28;20474;-42
2022/03/14 08:00:40;;;;;;;13.45;4.50;;;10.80;86.00;;;;;;5038728;28;20030;-45
2022/03/14 08:03:06;;;;;;;18.33;4.88;;;10.90;84.80;;;;;;5039621;28;20037;-45
2022/03/14 08:05:33;;;;;;;13.57;4.65;;;10.90;85.40;;;;;;5039147;28;20445;-44
2022/03/14 08:08:05;;;;;;;15.85;5.45;;;10.90;84.80;;;;;;5039378;28;20040;-47
2022/03/14 08:10:31;;;;;;;19.38;5.47;;;11.00;85.60;;;;;;5038904;28;20524;-49
2022/03/14 08:12:57;;;;;;;22.73;5.40;;;11.00;85.10;;;;;;5039110;28;20022;-47
2022/03/14 08:15:27;;;;;;;17.95;4.63;;;11.10;85.00;;;;;;5039080;28;20068;-47
2022/03/14 08:17:55;;;;;;;20.35;5.20;;;11.10;84.90;;;;;;5038958;28;20045;-45
2022/03/14 08:20:23;;;;;;;20.63;4.80;;;11.10;85.20;;;;;;5039127;28;20029;-45
2022/03/14 08:22:53;;;;;;;18.70;5.68;;;11.20;85.10;;;;;;5038903;28;20033;-46
2022/03/14 08:25:20;;;;;;;16.90;5.68;;;11.20;85.50;;;;;;5039065;28;20025;-43
2022/03/14 08:27:46;;;;;;;20.50;5.65;;;11.20;86.20;;;;;;5038749;28;20109;-44
2022/03/14 08:30:12;;;;;;;20.52;5.22;;;11.30;85.10;;;;;;5038712;28;20045;-44
2022/03/14 08:32:39;;;;;;;19.33;5.38;;;11.30;85.60;;;;;;5038690;28;20022;-42
2022/03/14 08:35:07;;;;;;;14.55;4.78;;;11.40;85.20;;;;;;5038811;28;20030;-46
2022/03/14 08:37:40;;;;;;;22.10;5.70;;;11.50;85.10;;;;;;5038805;28;20105;-47
2022/03/14 08:40:09;;;;;;;21.55;6.35;;;11.60;85.40;;;;;;5038652;28;20033;-44
2022/03/14 08:42:35;;;;;;;21.83;5.40;;;11.60;85.40;;;;;;5038705;28;20076;-44
2022/03/14 08:45:02;;;;;;;18.50;5.60;;;11.70;85.60;;;;;;5038493;28;20030;-43
2022/03/14 08:47:28;;;;;;;18.73;5.60;;;11.80;86.10;;;;;;5038442;28;20101;-44
2022/03/14 08:49:54;;;;;;;18.08;5.47;;;11.80;85.60;;;;;;5038000;28;20057;-44
2022/03/14 08:52:20;;;;;;;17.67;5.35;;;11.90;85.20;;;;;;5037843;28;20030;-44
2022/03/14 08:54:45;;;;;;;20.13;5.70;;;11.90;84.80;;;;;;5038053;28;20059;-45
2022/03/14 08:57:11;;;;;;;18.98;6.57;;;12.00;84.70;;;;;;5037824;28;20488;-46
2022/03/14 08:59:37;;;;;;;17.77;6.70;;;12.00;83.70;;;;;;5037811;28;20167;-50
2022/03/14 09:02:03;;;;;;;22.98;6.88;;;12.00;83.30;;;;;;5037996;28;20049;-48
2022/03/14 09:04:29;;;;;;;22.42;6.38;;;12.00;82.70;;;;;;5037989;28;20083;-48
2022/03/14 09:06:55;;;;;;;18.50;7.32;;;12.00;82.70;;;;;;5037866;28;20026;-49
2022/03/14 09:09:21;;;;;;;22.58;7.28;;;12.00;81.10;;;;;;5037511;28;20104;-46
2022/03/14 09:11:47;;;;;;;19.20;6.55;;;11.90;81.20;;;;;;5037623;28;20041;-47
2022/03/14 09:14:12;;;;;;;21.83;5.75;;;11.80;80.80;;;;;;5037357;28;20105;-46
2022/03/14 09:16:39;;;;;;;19.95;6.40;;;11.70;81.10;;;;;;5037675;28;20030;-50
2022/03/14 09:19:05;;;;;;;21.23;6.88;;;11.60;82.40;;;;;;5036859;28;20032;-48
2022/03/14 09:21:32;;;;;;;28.10;7.43;;;11.60;82.20;;;;;;5037502;28;20029;-50
2022/03/14 09:23:58;;;;;;;19.00;6.30;;;11.60;82.50;;;;;;5037199;28;20193;-47
2022/03/14 09:26:24;;;;;;;19.67;6.72;;;11.60;82.20;;;;;;5037332;28;20404;-48
2022/03/14 09:28:50;;;;;;;18.70;5.50;;;11.60;82.00;;;;;;5037701;28;20037;-47
2022/03/14 09:31:16;;;;;;;19.90;6.15;;;11.60;82.40;;;;;;5037474;28;20025;-48
2022/03/14 09:33:42;;;;;;;18.10;6.45;;;11.70;82.50;;;;;;5037495;28;20057;-47
2022/03/14 09:36:09;;;;;;;21.85;6.47;;;11.70;83.30;;;;;;5037507;28;20021;-49
2022/03/14 09:38:35;;;;;;;21.90;7.38;;;11.90;81.80;;;;;;5037441;28;20018;-47
2022/03/14 09:41:03;;;;;;;21.70;7.45;;;12.00;81.10;;;;;;5037216;28;20022;-46
2022/03/14 09:43:31;;;;;;;21.05;7.28;;;12.00;81.00;;;;;;5037367;28;20052;-48
2022/03/14 09:45:58;;;;;;;22.35;7.00;;;12.10;81.90;;;;;;5037230;28;20140;-45
2022/03/14 09:48:24;;;;;;;25.60;6.28;;;12.30;83.20;;;;;;5037305;28;20025;-53
2022/03/14 09:50:51;;;;;;;16.92;6.10;;;12.60;83.70;;;;;;5037095;28;20407;-48
2022/03/14 09:53:18;;;;;;;13.55;5.55;;;13.10;82.40;;;;;;5037485;28;20025;-46
2022/03/14 09:55:47;;;;;;;20.48;7.25;;;13.40;80.50;;;;;;5037294;28;20044;-46
2022/03/14 09:58:18;;;;;;;21.23;7.93;;;13.60;80.10;;;;;;5036921;28;20029;-50
2022/03/14 10:00:45;;;;;;;19.02;7.10;;;13.60;78.50;;;;;;5037270;28;20084;-45
2022/03/14 10:03:12;;;;;;;18.63;6.43;;;14.10;81.60;;;;;;5037152;28;20079;-46
2022/03/14 10:05:38;;;;;;;17.83;6.50;;;14.80;83.10;;;;;;5037148;28;20029;-46
2022/03/14 10:08:04;;;;;;;17.05;6.18;;;15.20;77.10;;;;;;5036986;28;20034;-48
2022/03/14 10:10:30;;;;;;;18.65;6.28;;;15.30;74.00;;;;;;5036798;28;20021;-48
2022/03/14 10:12:59;;;;;;;16.17;5.85;;;15.20;72.30;;;;;;5037563;28;20080;-49
2022/03/14 10:15:26;;;;;;;16.23;6.03;;;15.10;73.30;;;;;;5037336;28;20029;-46
2022/03/14 10:17:53;;;;;;;15.85;6.18;;;15.00;74.20;;;;;;5037262;28;20163;-46
2022/03/14 10:20:21;;;;;;;16.25;6.85;;;15.10;75.30;;;;;;5037476;28;20029;-47
2022/03/14 10:22:48;;;;;;;18.33;6.65;;;15.30;75.90;;;;;;5037301;28;20044;-46
2022/03/14 10:25:16;;;;;;;18.83;6.30;;;15.70;76.10;;;;;;5037658;28;20038;-46
2022/03/14 10:27:57;;;;;;;16.88;5.70;;;16.50;73.60;;;;;;5037481;28;20053;-46
2022/03/14 10:30:33;;;;;;;11.75;5.57;;;17.50;73.20;;;;;;5040098;28;20037;-46
2022/03/14 10:33:16;;;;;;;16.35;5.40;;;18.60;67.40;;;;;;5040966;28;20026;-46
2022/03/14 10:35:43;;;;;;;16.55;5.47;;;19.60;72.30;;;;;;5041375;28;20358;-46
2022/03/14 10:38:12;;;;;;;16.70;5.70;;;20.40;69.30;;;;;;5040826;28;20095;-46
2022/03/14 10:40:41;;;;;;;16.85;5.07;;;20.80;69.00;;;;;;5041034;28;20029;-48
2022/03/14 10:43:29;;;;;;;13.52;4.78;;;21.20;64.50;;;;;;5041262;28;20057;-48
2022/03/14 10:45:56;;;;;;;12.95;4.60;;;21.80;68.70;;;;;;5040860;28;20021;-46
2022/03/14 10:48:51;;;;;;;15.35;4.72;;;22.30;67.10;;;;;;5040705;28;20025;-47
2022/03/14 10:51:18;;;;;;;16.92;4.45;;;22.70;63.00;;;;;;5039969;28;20048;-48
2022/03/14 10:53:45;;;;;;;11.45;4.20;;;23.00;61.40;;;;;;5040581;28;20139;-46
2022/03/14 10:56:12;;;;;;;15.63;4.40;;;23.10;59.80;;;;;;5040797;28;20043;-46
2022/03/14 10:58:39;;;;;;;16.15;3.97;;;23.00;56.80;;;;;;5040616;28;20024;-46
2022/03/14 11:01:12;;;;;;;14.27;4.60;;;23.00;61.30;;;;;;5040658;28;20032;-46
2022/03/14 11:03:41;;;;;;;16.38;4.32;;;23.30;60.70;;;;;;5040342;28;20469;-46
2022/03/14 11:06:08;;;;;;;12.30;5.00;;;23.70;59.70;;;;;;5040408;28;20034;-46
2022/03/14 11:08:47;;;;;;;10.07;4.10;;;24.10;58.30;;;;;;5040646;28;20017;-47
2022/03/14 11:11:14;;;;;;;11.90;4.22;;;24.30;57.80;;;;;;5040284;28;20393;-46
2022/03/14 11:13:51;;;;;;;10.27;3.63;;;24.70;57.90;;;;;;5040232;28;20032;-47
2022/03/14 11:16:25;;;;;;;9.30;4.32;;;25.00;60.10;;;;;;5040195;28;20052;-45
2022/03/14 11:18:52;;;;;;;13.20;4.68;;;25.10;55.90;;;;;;5040169;28;20017;-48
2022/03/14 11:21:24;;;;;;;12.55;4.72;;;25.10;54.90;;;;;;5039643;28;20074;-46
2022/03/14 11:23:51;;;;;;;15.40;4.35;;;25.10;54.40;;;;;;5038717;28;20485;-46
2022/03/14 11:26:21;;;;;;;13.57;4.20;;;25.10;49.20;;;;;;5039763;28;20048;-53
2022/03/14 11:28:49;;;;;;;11.25;4.55;;;24.80;51.50;;;;;;5038712;28;20037;-46
2022/03/14 11:31:18;;;;;;;12.20;4.13;;;24.20;53.50;;;;;;5039194;28;20522;-48
2022/03/14 11:33:44;;;;;;;12.27;4.35;;;23.90;54.50;;;;;;5038161;28;20030;-48
2022/03/14 11:36:10;;;;;;;13.23;4.32;;;24.00;50.60;;;;;;5039515;28;20033;-47
2022/03/14 11:38:36;;;;;;;9.68;3.60;;;24.10;51.30;;;;;;5039368;28;20017;-49
2022/03/14 11:41:02;;;;;;;12.93;4.55;;;24.20;52.20;;;;;;5038961;28;20044;-49
2022/03/14 11:43:28;;;;;;;9.80;4.15;;;24.20;51.20;;;;;;5039490;28;20087;-47
2022/03/14 11:45:58;;;;;;;10.75;3.78;;;24.00;49.40;;;;;;5039518;28;20022;-48
2022/03/14 11:48:28;;;;;;;11.45;3.85;;;23.80;50.40;;;;;;5039164;28;20025;-46
2022/03/14 11:50:58;;;;;;;9.82;3.22;;;23.60;48.10;;;;;;5039119;28;20172;-50
2022/03/14 11:53:26;;;;;;;10.23;3.17;;;23.50;51.10;;;;;;5039128;28;20033;-45
2022/03/14 11:55:57;;;;;;;9.75;2.70;;;23.60;50.70;;;;;;5039285;28;20053;-48
2022/03/14 11:58:35;;;;;;;10.77;2.85;;;23.70;47.00;;;;;;5039115;28;20025;-46
2022/03/14 12:01:29;;;;;;;10.85;3.75;;;23.30;48.40;;;;;;5039194;28;20033;-49
2022/03/14 12:03:59;;;;;;;10.20;3.65;;;23.30;49.50;;;;;;5039337;28;20088;-48
2022/03/14 12:06:47;;;;;;;10.13;2.90;;;23.50;48.40;;;;;;5038841;28;20021;-48
2022/03/14 12:09:27;;;;;;;11.43;3.83;;;23.60;51.30;;;;;;5038901;28;20021;-50
2022/03/14 12:12:29;;;;;;;8.70;3.45;;;23.90;50.10;;;;;;5038744;28;20556;-46
2022/03/14 12:14:58;;;;;;;9.27;3.10;;;24.10;48.60;;;;;;5038482;28;20055;-46
2022/03/14 12:17:29;;;;;;;12.98;3.80;;;24.20;53.00;;;;;;5038478;28;20080;-47
2022/03/14 12:19:57;;;;;;;10.65;3.20;;;24.60;50.20;;;;;;5038511;28;20029;-50
2022/03/14 12:22:29;;;;;;;9.23;3.25;;;24.80;47.90;;;;;;5038674;28;20079;-47
2022/03/14 12:24:56;;;;;;;9.43;3.08;;;24.80;47.30;;;;;;5038140;28;20125;-51
2022/03/14 12:27:35;;;;;;;10.38;3.50;;;24.60;47.00;;;;;;5038517;28;20400;-48
2022/03/14 12:30:16;;;;;;;9.38;3.28;;;24.50;49.40;;;;;;5038365;28;20041;-49
2022/03/14 12:32:54;;;;;;;10.38;3.63;;;24.90;48.20;;;;;;5038495;28;20033;-46
2022/03/14 12:35:24;;;;;;;9.55;3.42;;;25.10;48.00;;;;;;5036809;28;20017;-50
2022/03/14 12:38:10;;;;;;;11.15;3.55;;;25.10;45.70;;;;;;5037861;28;20022;-48
2022/03/14 12:40:36;;;;;;;11.45;3.38;;;24.70;44.40;;;;;;5038242;28;20036;-47
2022/03/14 12:43:07;;;;;;;8.70;3.17;;;24.20;46.10;;;;;;5038156;28;20473;-48